Broadus, MT

9:05 AM MST on December 10, 2016 (GMT -0700)
Cinch Buckle | | Change Station

Elev 3114 ft 45.49 °N, 104.98 °W | Updated 10 seconds ago

Snow
Snow
3.6 °F
Feels Like -13 °F
N
12.1
Wind Variable Wind from North
Gusts 12.3 mph

Today
High -- | Low -- °F
--% Chance of Precip.
Yesterday
High -- | Low -- °F
Precip. -- in
Pressure 29.81 in
Visibility 10.0 miles
Clouds Overcast 7500 ft
Windchill -13 °F
Dew Point -8 °F
Humidity 57%
Rainfall 0.00 in
Snow Depth Not available.
7:31 AM 4:18 PM
Waxing Gibbous, 84% visible
METAR KW43 101555Z AUTO 00000KT 10SM OVC075 M14/M16 A2981 RMK AO2
Pressure 29.81 in
Visibility 10.0 miles
Clouds Overcast 7500 ft
Windchill -13 °F
Dew Point -8 °F
Humidity 57%
Rainfall 0.00 in
Snow Depth Not available.
7:31 AM 4:18 PM
Waxing Gibbous, 84% visible
METAR KW43 101555Z AUTO 00000KT 10SM OVC075 M14/M16 A2981 RMK AO2

10-Day Weather Forecast

Almanac

Astronomy

Dec. 10, 2016 Rise Set
Actual Time
Civil Twilight
Nautical Twilight
Astronomical Twilight
Moon
Length of Visible Light
Length of Day
Tomorrow will be .
, % of the Moon is Illuminated

Today's Extremes

State Highs State Lows

Community

WunderPhotos

Upload Photos

1,956,569 photos uploaded!

WunderBlog® & News

Nearby

Air Quality

  Air Quality AQ Index Pollutant
Not available.

Snow Depth

Station Depth Elevation

Earthquake Activity

City Distance Mag. Time & Date
Minimum magnitude displayed is 2.5.

Coastal Water Temperatures

Place Temperature

Stations

Nearby Weather Stations

Station Location Temp. Windchill Dew Point Humidity Wind Precip. Elev Updated Type
                   

Watches & Warnings

There are currently no watches in effect.